Terminal Aerodrome Forecast
Issued by NWS

Home | Current Version | Previous Version | Text Only | Print | Product List | Glossary On
Versions: 1 2 3 4 5 6 7 8 9 10 11 12 13
889
FTUS45 KTFX 301720
TAFBZN
TAF
KBZN 301720Z 3018/0118 20009KT P6SM VCSH SCT035 BKN060
      TEMPO 3020/3024 5SM -SHRA OVC035
     FM010100 29010KT P6SM SCT060 BKN090
     FM010700 VRB06KT P6SM SCT090
     FM011200 VRB06KT P6SM BKN090=

USA.gov is the U.S. government's official web portal to all federal, state and local government web resources and services.